createdAt,value
2022-10-18T00:00:43.945Z,16.96
2022-10-18T00:03:10.474Z,16.95
2022-10-18T00:05:36.851Z,16.93
2022-10-18T00:08:03.485Z,16.93
2022-10-18T00:10:29.773Z,16.91
2022-10-18T00:12:56.280Z,16.90
2022-10-18T00:15:22.646Z,16.89
2022-10-18T00:17:49.808Z,16.87
2022-10-18T00:20:16.444Z,16.87
2022-10-18T00:22:43.330Z,16.86
2022-10-18T00:25:10.320Z,16.87
2022-10-18T00:27:38.086Z,16.86
2022-10-18T00:30:05.229Z,16.86
2022-10-18T00:32:35.658Z,16.86
2022-10-18T00:35:02.345Z,16.84
2022-10-18T00:37:29.161Z,16.83
2022-10-18T00:39:55.516Z,16.82
2022-10-18T00:42:22.829Z,16.81
2022-10-18T00:44:49.163Z,16.79
2022-10-18T00:47:16.727Z,16.76
2022-10-18T00:49:45.378Z,16.73
2022-10-18T00:52:17.184Z,16.71
2022-10-18T00:54:45.515Z,16.67
2022-10-18T00:57:12.683Z,16.65
2022-10-18T00:59:39.545Z,16.63
2022-10-18T01:02:06.769Z,16.63
2022-10-18T01:04:33.911Z,16.63
2022-10-18T01:07:00.307Z,16.61
2022-10-18T01:09:39.294Z,16.59
2022-10-18T01:12:05.696Z,16.56
2022-10-18T01:14:43.917Z,16.56
2022-10-18T01:17:18.039Z,16.54
2022-10-18T01:19:56.969Z,16.53
2022-10-18T01:22:26.872Z,16.52
2022-10-18T01:25:05.890Z,16.50
2022-10-18T01:27:47.377Z,16.47
2022-10-18T01:30:49.282Z,16.45
2022-10-18T01:33:25.537Z,16.39
2022-10-18T01:35:56.579Z,16.37
2022-10-18T01:38:25.325Z,16.34
2022-10-18T01:40:52.769Z,16.28
2022-10-18T01:43:21.153Z,16.24
2022-10-18T01:45:48.676Z,16.23
2022-10-18T01:48:16.243Z,16.21
2022-10-18T01:50:42.556Z,16.17
2022-10-18T01:53:25.868Z,16.10
2022-10-18T01:56:01.850Z,16.07
2022-10-18T01:58:31.586Z,16.01
2022-10-18T02:01:06.814Z,15.96
2022-10-18T02:03:34.637Z,15.92
2022-10-18T02:06:04.075Z,15.91
2022-10-18T02:08:30.375Z,15.85
2022-10-18T02:11:00.693Z,15.79
2022-10-18T02:13:29.852Z,15.75
2022-10-18T02:15:59.314Z,15.72
2022-10-18T02:18:29.035Z,15.70
2022-10-18T02:20:56.357Z,15.67
2022-10-18T02:23:25.107Z,15.64
2022-10-18T02:25:51.693Z,15.61
2022-10-18T02:28:18.104Z,15.58
2022-10-18T02:30:50.878Z,15.57
2022-10-18T02:33:20.891Z,15.54
2022-10-18T02:35:49.595Z,15.52
2022-10-18T02:38:17.343Z,15.51
2022-10-18T02:40:43.642Z,15.51
2022-10-18T02:43:10.317Z,15.50
2022-10-18T02:45:36.669Z,15.48
2022-10-18T02:48:02.986Z,15.46
2022-10-18T02:50:29.258Z,15.48
2022-10-18T02:52:58.284Z,15.45
2022-10-18T02:55:24.630Z,15.44
2022-10-18T02:57:50.945Z,15.44
2022-10-18T03:00:17.319Z,15.43
2022-10-18T03:02:43.729Z,15.41
2022-10-18T03:05:10.100Z,15.40
2022-10-18T03:07:36.445Z,15.37
2022-10-18T03:10:03.057Z,15.34
2022-10-18T03:12:29.352Z,15.33
2022-10-18T03:14:55.653Z,15.33
2022-10-18T03:17:21.986Z,15.31
2022-10-18T03:19:48.330Z,15.29
2022-10-18T03:22:14.597Z,15.32
2022-10-18T03:24:40.886Z,15.32
2022-10-18T03:27:07.201Z,15.30
2022-10-18T03:29:33.465Z,15.29
2022-10-18T03:31:59.769Z,15.30
2022-10-18T03:34:26.064Z,15.28
2022-10-18T03:36:52.401Z,15.29
2022-10-18T03:39:18.712Z,15.27
2022-10-18T03:41:45.024Z,15.25
2022-10-18T03:44:11.337Z,15.23
2022-10-18T03:46:37.664Z,15.22
2022-10-18T03:49:04.030Z,15.18
2022-10-18T03:51:30.353Z,15.16
2022-10-18T03:53:56.650Z,15.16
2022-10-18T03:56:25.654Z,15.16
2022-10-18T03:58:51.974Z,15.15
2022-10-18T04:01:18.350Z,15.14
2022-10-18T04:03:44.704Z,15.14
2022-10-18T04:06:11.006Z,15.12
2022-10-18T04:08:37.308Z,15.10
2022-10-18T04:11:11.032Z,15.08
2022-10-18T04:13:37.558Z,15.07
2022-10-18T04:16:03.883Z,15.04
2022-10-18T04:18:30.441Z,15.03
2022-10-18T04:20:56.847Z,15.02
2022-10-18T04:23:23.208Z,14.99
2022-10-18T04:25:49.590Z,14.96
2022-10-18T04:28:15.935Z,14.94
2022-10-18T04:30:42.261Z,14.93
2022-10-18T04:33:08.560Z,14.93
2022-10-18T04:35:34.868Z,14.93
2022-10-18T04:38:01.178Z,14.89
2022-10-18T04:40:27.503Z,14.89
2022-10-18T04:42:53.778Z,14.88
2022-10-18T04:45:20.189Z,14.87
2022-10-18T04:47:46.530Z,14.85
2022-10-18T04:50:12.837Z,14.83
2022-10-18T04:52:39.188Z,14.80
2022-10-18T04:55:05.729Z,14.79
2022-10-18T04:57:32.346Z,14.78
2022-10-18T04:59:58.840Z,14.78
2022-10-18T05:02:25.140Z,14.77
2022-10-18T05:04:51.489Z,14.76
2022-10-18T05:07:17.940Z,14.76
2022-10-18T05:09:44.252Z,14.73
2022-10-18T05:12:10.609Z,14.73
2022-10-18T05:14:36.957Z,14.69
2022-10-18T05:17:03.280Z,14.64
2022-10-18T05:19:29.602Z,14.64
2022-10-18T05:21:55.916Z,14.65
2022-10-18T05:24:24.222Z,14.62
2022-10-18T05:26:53.894Z,14.62
2022-10-18T05:29:20.359Z,14.62
2022-10-18T05:31:48.147Z,14.64
2022-10-18T05:34:14.465Z,14.67
2022-10-18T05:36:40.771Z,14.64
2022-10-18T05:39:07.128Z,14.62
2022-10-18T05:41:33.582Z,14.61
2022-10-18T05:44:03.562Z,14.58
2022-10-18T05:46:29.954Z,14.58
2022-10-18T05:48:56.386Z,14.52
2022-10-18T05:51:22.686Z,14.51
2022-10-18T05:53:49.097Z,14.53
2022-10-18T05:56:15.438Z,14.51
2022-10-18T05:58:42.107Z,14.48
2022-10-18T06:01:09.326Z,14.39
2022-10-18T06:03:35.937Z,14.31
2022-10-18T06:06:03.306Z,14.30
2022-10-18T06:08:29.833Z,14.30
2022-10-18T06:10:56.882Z,14.30
2022-10-18T06:13:23.536Z,14.25
2022-10-18T06:15:49.987Z,14.24
2022-10-18T06:18:16.683Z,14.23
2022-10-18T06:20:42.986Z,14.25
2022-10-18T06:23:09.305Z,14.24
2022-10-18T06:25:35.643Z,14.23
2022-10-18T06:28:03.858Z,14.21
2022-10-18T06:30:30.530Z,14.20
2022-10-18T06:32:59.486Z,14.19
2022-10-18T06:35:25.915Z,14.18
2022-10-18T06:37:52.255Z,14.19
2022-10-18T06:40:18.698Z,14.21
2022-10-18T06:42:55.188Z,14.19
2022-10-18T06:45:26.793Z,14.18
2022-10-18T06:47:53.113Z,14.13
2022-10-18T06:50:19.409Z,14.13
2022-10-18T06:52:45.743Z,14.15
2022-10-18T06:55:12.042Z,14.18
2022-10-18T06:57:38.359Z,14.20
2022-10-18T07:00:05.490Z,14.23
2022-10-18T07:02:32.102Z,14.21
2022-10-18T07:04:58.596Z,14.19
2022-10-18T07:07:24.938Z,14.19
2022-10-18T07:09:51.273Z,14.21
2022-10-18T07:12:17.763Z,14.24
2022-10-18T07:14:45.687Z,14.26
2022-10-18T07:17:12.028Z,14.33
2022-10-18T07:19:38.396Z,14.38
2022-10-18T07:22:04.776Z,14.45
2022-10-18T07:24:31.167Z,14.51
2022-10-18T07:26:57.489Z,14.56
2022-10-18T07:29:26.858Z,14.60
2022-10-18T07:31:53.161Z,14.61
2022-10-18T07:34:19.581Z,14.60
2022-10-18T07:36:46.121Z,14.62
2022-10-18T07:39:12.448Z,14.68
2022-10-18T07:41:39.601Z,14.70
2022-10-18T07:44:06.169Z,14.77
2022-10-18T07:46:32.565Z,14.81
2022-10-18T07:48:59.567Z,14.88
2022-10-18T07:51:26.871Z,14.93
2022-10-18T07:53:53.379Z,14.96
2022-10-18T07:56:20.643Z,14.98
2022-10-18T07:58:48.034Z,15.03
2022-10-18T08:01:15.171Z,15.07
2022-10-18T08:03:42.087Z,15.14
2022-10-18T08:06:09.649Z,15.20
2022-10-18T08:08:36.733Z,15.25
2022-10-18T08:11:04.904Z,15.35
2022-10-18T08:13:31.359Z,15.50
2022-10-18T08:16:05.397Z,15.52
2022-10-18T08:18:31.881Z,15.54
2022-10-18T08:21:01.319Z,15.59
2022-10-18T08:23:27.647Z,15.63
2022-10-18T08:25:53.962Z,15.67
2022-10-18T08:28:20.364Z,15.72
2022-10-18T08:30:46.688Z,15.73
2022-10-18T08:33:13.181Z,15.76
2022-10-18T08:35:39.522Z,15.85
2022-10-18T08:38:05.957Z,15.92
2022-10-18T08:40:34.658Z,16.02
2022-10-18T08:43:17.031Z,16.18
2022-10-18T08:45:47.811Z,16.42
2022-10-18T08:48:18.060Z,16.72
2022-10-18T08:50:45.297Z,17.14
2022-10-18T08:53:20.655Z,17.53
2022-10-18T08:55:57.799Z,17.94
2022-10-18T08:58:26.593Z,18.29
2022-10-18T09:00:58.570Z,18.59
2022-10-18T09:03:36.936Z,18.96
2022-10-18T09:06:11.727Z,19.28
2022-10-18T09:08:47.918Z,19.50
2022-10-18T09:11:24.676Z,19.67
2022-10-18T09:14:17.437Z,19.96
2022-10-18T09:16:49.943Z,20.29
2022-10-18T09:19:25.633Z,20.48
2022-10-18T09:21:58.362Z,20.53
2022-10-18T09:24:33.974Z,20.62
2022-10-18T09:27:04.521Z,20.47
2022-10-18T09:29:46.354Z,20.43
2022-10-18T09:32:15.418Z,20.66
2022-10-18T09:34:50.672Z,20.63
2022-10-18T09:37:19.236Z,20.67
2022-10-18T09:39:46.599Z,20.74
2022-10-18T09:42:12.890Z,20.91
2022-10-18T09:44:41.442Z,20.98
2022-10-18T09:50:00.270Z,21.07
2022-10-18T09:52:34.594Z,21.24
2022-10-18T09:55:05.346Z,21.22
2022-10-18T09:57:51.258Z,21.29
2022-10-18T10:00:34.337Z,21.39
2022-10-18T10:03:01.716Z,21.60
2022-10-18T10:05:28.080Z,21.76
2022-10-18T10:07:59.389Z,21.92
2022-10-18T10:10:26.769Z,22.05
2022-10-18T10:13:12.035Z,22.20
2022-10-18T10:15:42.382Z,22.15
2022-10-18T10:18:23.313Z,22.35
2022-10-18T10:20:54.158Z,22.46
2022-10-18T10:23:30.488Z,22.58
2022-10-18T10:26:01.999Z,22.79
2022-10-18T10:28:46.179Z,22.96
2022-10-18T10:31:24.830Z,22.98
2022-10-18T10:34:14.548Z,23.07
2022-10-18T10:36:51.285Z,22.98
2022-10-18T10:39:19.362Z,23.11
2022-10-18T10:41:50.298Z,22.96
2022-10-18T10:44:21.234Z,22.95
2022-10-18T10:46:49.495Z,22.99
2022-10-18T10:49:40.333Z,23.36
2022-10-18T10:52:08.808Z,23.57
2022-10-18T10:54:46.497Z,23.33
2022-10-18T10:57:22.783Z,23.33
2022-10-18T10:59:51.114Z,23.52
2022-10-18T11:02:21.731Z,23.64
2022-10-18T11:04:49.284Z,23.87
2022-10-18T11:07:39.498Z,23.75
2022-10-18T11:10:12.484Z,24.00
2022-10-18T11:12:42.023Z,24.01
2022-10-18T11:15:10.132Z,24.26
2022-10-18T11:17:42.037Z,24.52
2022-10-18T11:20:27.688Z,24.75
2022-10-18T11:22:59.739Z,24.78
2022-10-18T11:25:34.481Z,24.69
2022-10-18T11:28:05.952Z,24.77
2022-10-18T11:30:35.390Z,24.94
2022-10-18T11:33:20.661Z,25.06
2022-10-18T11:36:13.482Z,24.97
2022-10-18T11:39:00.081Z,25.04
2022-10-18T11:41:26.458Z,25.02
2022-10-18T11:44:02.767Z,25.23
2022-10-18T11:46:29.583Z,25.41
2022-10-18T11:48:59.007Z,25.31
2022-10-18T11:51:34.103Z,25.24
2022-10-18T11:54:21.759Z,24.93
2022-10-18T11:56:55.895Z,25.10
2022-10-18T11:59:27.875Z,25.23
2022-10-18T12:02:03.658Z,25.50
2022-10-18T12:04:48.958Z,25.41
2022-10-18T12:07:28.930Z,25.37
2022-10-18T12:10:02.981Z,25.23
2022-10-18T12:12:49.572Z,25.22
2022-10-18T12:15:20.873Z,25.39
2022-10-18T12:17:52.699Z,25.20
2022-10-18T12:20:35.847Z,25.17
2022-10-18T12:23:03.882Z,25.21
2022-10-18T12:25:35.533Z,25.39
2022-10-18T12:28:20.885Z,25.57
2022-10-18T12:31:19.444Z,25.38
2022-10-18T12:33:48.515Z,25.24
2022-10-18T12:36:20.990Z,25.39
2022-10-18T12:38:49.922Z,25.43
2022-10-18T12:41:21.206Z,25.31
2022-10-18T12:43:52.154Z,25.11
2022-10-18T12:46:18.519Z,25.11
2022-10-18T12:48:46.157Z,25.03
2022-10-18T12:51:17.350Z,25.04
2022-10-18T12:53:56.804Z,24.79
2022-10-18T12:56:29.231Z,24.72
2022-10-18T12:59:14.274Z,24.73
2022-10-18T13:01:58.221Z,24.59
2022-10-18T13:04:27.589Z,24.22
2022-10-18T13:06:57.128Z,24.19
2022-10-18T13:09:24.740Z,24.06
2022-10-18T13:11:53.793Z,24.24
2022-10-18T13:14:30.498Z,24.28
2022-10-18T13:17:04.313Z,23.99
2022-10-18T13:19:31.714Z,24.06
2022-10-18T13:22:09.692Z,23.85
2022-10-18T13:24:36.004Z,23.65
2022-10-18T13:27:35.608Z,23.56
2022-10-18T13:30:15.727Z,23.07
2022-10-18T13:32:45.102Z,23.14
2022-10-18T13:35:30.286Z,22.73
2022-10-18T13:38:00.070Z,23.01
2022-10-18T13:40:26.587Z,22.80
2022-10-18T13:42:52.876Z,22.77
2022-10-18T13:45:31.610Z,23.02
2022-10-18T13:48:17.928Z,22.72
2022-10-18T13:50:46.973Z,22.95
2022-10-18T13:53:25.313Z,22.75
2022-10-18T13:55:57.559Z,22.29
2022-10-18T13:58:48.751Z,22.31
2022-10-18T14:01:32.991Z,22.43
2022-10-18T14:04:11.674Z,22.39
2022-10-18T14:06:42.477Z,22.47
2022-10-18T14:09:25.963Z,22.72
2022-10-18T14:12:17.005Z,22.89
2022-10-18T14:14:50.842Z,22.97
2022-10-18T14:17:27.000Z,22.82
2022-10-18T14:19:56.207Z,22.41
2022-10-18T14:22:38.373Z,22.21
2022-10-18T14:25:18.734Z,21.97
2022-10-18T14:27:45.027Z,21.64
2022-10-18T14:30:19.362Z,21.43
2022-10-18T14:32:50.397Z,21.60
2022-10-18T14:35:33.600Z,21.70
2022-10-18T14:38:00.851Z,21.76
2022-10-18T14:40:30.031Z,21.78
2022-10-18T14:42:56.445Z,21.81
2022-10-18T14:45:23.742Z,21.84
2022-10-18T14:47:50.209Z,21.91
2022-10-18T14:50:24.051Z,21.54
2022-10-18T14:52:50.705Z,21.60
2022-10-18T14:55:21.011Z,21.61
2022-10-18T14:57:47.392Z,21.72
2022-10-18T15:00:47.778Z,21.74
2022-10-18T15:03:16.436Z,21.57
2022-10-18T15:05:53.719Z,21.51
2022-10-18T15:08:20.559Z,21.26
2022-10-18T15:10:47.678Z,21.06
2022-10-18T15:13:14.734Z,20.93
2022-10-18T15:15:41.608Z,20.77
2022-10-18T15:18:08.113Z,20.69
2022-10-18T15:20:39.258Z,20.44
2022-10-18T15:23:26.019Z,20.17
2022-10-18T15:25:59.337Z,20.13
2022-10-18T15:28:28.745Z,20.10
2022-10-18T15:30:57.954Z,19.90
2022-10-18T15:33:25.698Z,19.84
2022-10-18T15:35:53.049Z,19.80
2022-10-18T15:38:31.938Z,19.81
2022-10-18T15:40:58.382Z,19.75
2022-10-18T15:43:27.549Z,19.61
2022-10-18T15:46:06.573Z,19.51
2022-10-18T15:48:38.095Z,19.41
2022-10-18T15:51:27.697Z,19.37
2022-10-18T15:53:54.570Z,19.29
2022-10-18T15:56:27.758Z,19.17
2022-10-18T15:58:57.232Z,19.09
2022-10-18T16:01:32.698Z,18.93
2022-10-18T16:03:59.686Z,18.63
2022-10-18T16:06:26.107Z,18.41
2022-10-18T16:08:53.488Z,18.27
2022-10-18T16:11:21.277Z,18.14
2022-10-18T16:13:47.914Z,18.16
2022-10-18T16:16:19.502Z,18.09
2022-10-18T16:18:46.355Z,18.04
2022-10-18T16:21:17.838Z,17.91
2022-10-18T16:23:44.654Z,17.77
2022-10-18T16:26:11.978Z,17.71
2022-10-18T16:28:39.023Z,17.66
2022-10-18T16:31:05.543Z,17.65
2022-10-18T16:33:31.913Z,17.56
2022-10-18T16:35:58.679Z,17.47
2022-10-18T16:38:35.472Z,17.42
2022-10-18T16:41:03.566Z,17.35
2022-10-18T16:43:30.119Z,17.34
2022-10-18T16:45:56.573Z,17.29
2022-10-18T16:48:24.027Z,17.30
2022-10-18T16:50:50.933Z,17.23
2022-10-18T16:53:23.383Z,17.13
2022-10-18T16:55:58.350Z,17.01
2022-10-18T16:58:25.612Z,16.90
2022-10-18T17:00:52.044Z,16.86
2022-10-18T17:03:18.765Z,16.81
2022-10-18T17:05:45.279Z,16.77
2022-10-18T17:08:19.708Z,16.72
2022-10-18T17:10:47.609Z,16.63
2022-10-18T17:13:14.193Z,16.52
2022-10-18T17:15:43.354Z,16.46
2022-10-18T17:18:10.959Z,16.39
2022-10-18T17:20:38.079Z,16.33
2022-10-18T17:23:04.831Z,16.26
2022-10-18T17:28:02.648Z,16.08
2022-10-18T17:30:29.080Z,16.02
2022-10-18T17:32:55.506Z,15.96
2022-10-18T17:35:21.921Z,15.89
2022-10-18T17:37:49.115Z,15.80
2022-10-18T17:40:15.420Z,15.73
2022-10-18T17:42:41.738Z,15.66
2022-10-18T17:45:08.614Z,15.56
2022-10-18T17:47:35.269Z,15.45
2022-10-18T17:50:01.818Z,15.36
2022-10-18T17:52:28.187Z,15.34
2022-10-18T17:54:55.131Z,15.35
2022-10-18T17:57:21.422Z,15.29
2022-10-18T17:59:50.573Z,15.22
2022-10-18T18:02:17.362Z,15.14
2022-10-18T18:04:43.815Z,15.07
2022-10-18T18:07:10.220Z,15.00
2022-10-18T18:09:36.801Z,14.92
2022-10-18T18:12:03.209Z,14.84
2022-10-18T18:14:29.636Z,14.78
2022-10-18T18:16:56.107Z,14.73
2022-10-18T18:19:26.438Z,14.67
2022-10-18T18:21:55.749Z,14.60
2022-10-18T18:24:25.041Z,14.53
2022-10-18T18:26:53.110Z,14.49
2022-10-18T18:29:20.223Z,14.45
2022-10-18T18:31:46.856Z,14.38
2022-10-18T18:34:13.238Z,14.33
2022-10-18T18:36:40.071Z,14.28
2022-10-18T18:39:06.507Z,14.24
2022-10-18T18:41:33.123Z,14.21
2022-10-18T18:44:00.562Z,14.14
2022-10-18T18:46:28.833Z,14.08
2022-10-18T18:48:57.228Z,14.00
2022-10-18T18:51:24.898Z,13.92
2022-10-18T18:53:51.731Z,13.89
2022-10-18T18:58:47.832Z,13.80
2022-10-18T19:01:17.291Z,13.72
2022-10-18T19:03:44.615Z,13.65
2022-10-18T19:06:13.776Z,13.62
2022-10-18T19:08:41.678Z,13.58
2022-10-18T19:11:09.338Z,13.50
2022-10-18T19:13:55.022Z,13.47
2022-10-18T19:16:21.360Z,13.41
2022-10-18T19:18:52.196Z,13.38
2022-10-18T19:21:18.533Z,13.36
2022-10-18T19:23:44.823Z,13.30
2022-10-18T19:26:20.584Z,13.27
2022-10-18T19:28:47.028Z,13.24
2022-10-18T19:31:13.345Z,13.24
2022-10-18T19:33:48.501Z,13.21
2022-10-18T19:36:25.342Z,13.14
2022-10-18T19:38:51.700Z,13.08
2022-10-18T19:41:20.911Z,13.06
2022-10-18T19:43:47.282Z,13.02
2022-10-18T19:46:13.575Z,12.97
2022-10-18T19:48:39.873Z,12.92
2022-10-18T19:51:08.976Z,12.89
2022-10-18T19:53:36.131Z,12.84
2022-10-18T19:56:03.753Z,12.81
2022-10-18T19:58:33.367Z,12.78
2022-10-18T20:01:00.282Z,12.73
2022-10-18T20:03:30.224Z,12.69
2022-10-18T20:05:57.878Z,12.65
2022-10-18T20:08:25.413Z,12.63
2022-10-18T20:10:56.790Z,12.60
2022-10-18T20:13:23.505Z,12.54
2022-10-18T20:15:50.720Z,12.50
2022-10-18T20:18:17.843Z,12.48
2022-10-18T20:20:47.359Z,12.45
2022-10-18T20:23:15.372Z,12.37
2022-10-18T20:25:41.710Z,12.33
2022-10-18T20:28:08.233Z,12.30
2022-10-18T20:30:34.580Z,12.24
2022-10-18T20:33:00.890Z,12.23
2022-10-18T20:35:27.187Z,12.19
2022-10-18T20:37:53.654Z,12.15
2022-10-18T20:40:20.001Z,12.10
2022-10-18T20:42:46.582Z,12.09
2022-10-18T20:45:12.959Z,12.06
2022-10-18T20:47:39.316Z,12.02
2022-10-18T20:50:06.055Z,12.02
2022-10-18T20:52:32.425Z,11.98
2022-10-18T20:54:58.775Z,11.93
2022-10-18T20:57:25.476Z,11.87
2022-10-18T20:59:51.774Z,11.81
2022-10-18T21:02:18.192Z,11.77
2022-10-18T21:04:44.917Z,11.70
2022-10-18T21:07:11.202Z,11.65
2022-10-18T21:09:37.525Z,11.63
2022-10-18T21:12:04.043Z,11.61
2022-10-18T21:14:30.494Z,11.60
2022-10-18T21:16:57.262Z,11.56
2022-10-18T21:19:24.560Z,11.52
2022-10-18T21:21:52.897Z,11.48
2022-10-18T21:24:19.994Z,11.46
2022-10-18T21:26:47.850Z,11.44
2022-10-18T21:29:18.121Z,11.42
2022-10-18T21:31:47.435Z,11.36
2022-10-18T21:34:15.347Z,11.32
2022-10-18T21:36:42.484Z,11.31
2022-10-18T21:39:11.653Z,11.31
2022-10-18T21:41:38.102Z,11.29
2022-10-18T21:44:06.948Z,11.31
2022-10-18T21:46:37.364Z,11.28
2022-10-18T21:49:03.699Z,11.28
2022-10-18T21:51:30.048Z,11.26
2022-10-18T21:53:57.302Z,11.21
2022-10-18T21:56:31.625Z,11.21
2022-10-18T21:58:58.310Z,11.20
2022-10-18T22:01:35.195Z,11.19
2022-10-18T22:04:02.862Z,11.19
2022-10-18T22:06:32.191Z,11.18
2022-10-18T22:08:59.835Z,11.18
2022-10-18T22:11:27.868Z,11.16
2022-10-18T22:13:54.492Z,11.16
2022-10-18T22:16:21.368Z,11.13
2022-10-18T22:18:48.348Z,11.09
2022-10-18T22:21:15.329Z,11.07
2022-10-18T22:23:46.026Z,11.05
2022-10-18T22:26:13.925Z,11.05
2022-10-18T22:28:41.163Z,11.05
2022-10-18T22:31:13.815Z,11.06
2022-10-18T22:33:40.188Z,11.03
2022-10-18T22:36:06.604Z,10.97
2022-10-18T22:38:34.874Z,10.95
2022-10-18T22:41:08.421Z,10.91
2022-10-18T22:43:35.284Z,10.86
2022-10-18T22:46:06.308Z,10.83
2022-10-18T22:48:33.259Z,10.80
2022-10-18T22:50:59.886Z,10.77
2022-10-18T22:53:26.265Z,10.71
2022-10-18T22:55:52.634Z,10.66
2022-10-18T22:58:19.544Z,10.66
2022-10-18T23:00:46.290Z,10.65
2022-10-18T23:03:14.205Z,10.64
2022-10-18T23:05:42.165Z,10.62
2022-10-18T23:08:09.909Z,10.59
2022-10-18T23:10:37.478Z,10.56
2022-10-18T23:13:04.545Z,10.52
2022-10-18T23:15:30.909Z,10.47
2022-10-18T23:17:57.953Z,10.47
2022-10-18T23:20:24.912Z,10.45
2022-10-18T23:22:51.937Z,10.43
2022-10-18T23:25:18.577Z,10.42
2022-10-18T23:27:45.081Z,10.41
2022-10-18T23:30:11.868Z,10.43
2022-10-18T23:32:39.749Z,10.43
2022-10-18T23:35:06.632Z,10.43
2022-10-18T23:37:33.590Z,10.42
2022-10-18T23:40:00.443Z,10.44
2022-10-18T23:42:31.614Z,10.44
2022-10-18T23:44:57.929Z,10.48
2022-10-18T23:47:25.562Z,10.50
2022-10-18T23:49:53.089Z,10.53
2022-10-18T23:52:20.165Z,10.56
2022-10-18T23:54:47.187Z,10.60
2022-10-18T23:57:13.533Z,10.65
2022-10-18T23:59:40.101Z,10.68
